BIRK/RKV METAR and TAF weather

Enter ICAO airport designator
Station Type Date Time Source
BIRK METAR 2018/10/21 06:00 UTC NOAA

BIRK 210600Z 23030G41KT 9999 FEW028CB BKN036 OVC050 05/M02 Q0992 RESHRA


Station Type Date Time Source
BIRK Decoded METAR 2018/10/21 06:00 UTC NOAA

Reykjavik, Iceland (BIRK) 64-08N 021-54W 61M
Oct 21, 2018 - 02:00 AM EDT / 2018.10.21 0600 UTC
Wind: from the SW (230 degrees) at 35 MPH (30 KT) gusting to 47 MPH (41 KT):0
Visibility: greater than 7 mile(s):0
Sky conditions: overcast
Weather: Cumulonimbus clouds observed
Temperature: 41 F (5 C)
Dew Point: 28 F (-2 C)
Relative Humidity: 60%
Pressure (altimeter): 29.29 in. Hg (0992 hPa)
ob: BIRK 210600Z 23030G41KT 9999 FEW028CB BKN036 OVC050 05/M02 Q0992 RESHRA
cycle: 6

Station Type Date Time Source
BIRK TAF 2018/10/21 06:59 UTC NOAA

TAF BIRK 210458Z 2106/2206 23028G40KT 9999 -SHRA FEW022 BKN033 TX03/2112Z TN06/2206Z
BECMG 2106/2109 24020G30KT
BECMG 2109/2112 24017KT PROB40
TEMPO 2109/2118 5000 SHRASN BKN015CB
BECMG 2202/2205 18012KT 8000 RADZ BKN015 OVC025


Example: see airport list